Amherst, Colorado
Current Conditions -  °F | °C
As of 2:15 AM on Thursday 27 Nov 2014 (Local Time) from KHEQ Reporting Station
Clear Clear  
Wind Chill: -10°   Ceiling: Unl
Heat Index: -6°   Visibility: 10mi
Dew Point: -7°   Wind: 6mph
Humidity: 93%   Direction: 150°SSE
Pressure: 30.28"   Gusts: NA
Location:  40.68°N, 102.17°W
Report Text: KHEQ 270915Z AUTO 15005KT 10SM CLR M06/M07 A3028 RMK AO2
Loading
Personal Weather Stations






























Interactive Weather Map New forecast layout! Learn more

10-Day Weather Forecast

Advertisements
Track Severe Weather on mobile